sensor_id;sensor_type;location;lat;lon;timestamp;P1;durP1;ratioP1;P2;durP2;ratioP2
11187;SDS011;5650;52.700;7.306;2022-10-15T00:01:33;78.13;;;44.20;;
11187;SDS011;5650;52.700;7.306;2022-10-15T00:04:08;71.80;;;43.83;;
11187;SDS011;5650;52.700;7.306;2022-10-15T00:06:35;74.30;;;44.80;;
11187;SDS011;5650;52.700;7.306;2022-10-15T00:09:02;81.85;;;46.15;;
11187;SDS011;5650;52.700;7.306;2022-10-15T00:11:29;74.57;;;44.25;;
11187;SDS011;5650;52.700;7.306;2022-10-15T00:14:01;79.68;;;44.28;;
11187;SDS011;5650;52.700;7.306;2022-10-15T00:16:31;78.97;;;45.60;;
11187;SDS011;5650;52.700;7.306;2022-10-15T00:18:58;79.93;;;45.67;;
11187;SDS011;5650;52.700;7.306;2022-10-15T00:21:26;76.20;;;44.50;;
11187;SDS011;5650;52.700;7.306;2022-10-15T00:23:53;87.10;;;46.58;;
11187;SDS011;5650;52.700;7.306;2022-10-15T00:26:28;80.15;;;46.50;;
11187;SDS011;5650;52.700;7.306;2022-10-15T00:28:59;81.45;;;47.30;;
11187;SDS011;5650;52.700;7.306;2022-10-15T00:31:35;81.93;;;45.25;;
11187;SDS011;5650;52.700;7.306;2022-10-15T00:34:05;81.85;;;47.08;;
11187;SDS011;5650;52.700;7.306;2022-10-15T00:36:35;81.43;;;48.78;;
11187;SDS011;5650;52.700;7.306;2022-10-15T00:39:04;70.85;;;43.40;;
11187;SDS011;5650;52.700;7.306;2022-10-15T00:41:32;80.35;;;47.10;;
11187;SDS011;5650;52.700;7.306;2022-10-15T00:44:42;82.35;;;47.83;;
11187;SDS011;5650;52.700;7.306;2022-10-15T00:47:10;79.60;;;45.08;;
11187;SDS011;5650;52.700;7.306;2022-10-15T00:49:42;84.63;;;47.75;;
11187;SDS011;5650;52.700;7.306;2022-10-15T00:52:12;85.00;;;49.17;;
11187;SDS011;5650;52.700;7.306;2022-10-15T00:54:43;83.28;;;47.65;;
11187;SDS011;5650;52.700;7.306;2022-10-15T00:57:13;85.88;;;48.53;;
11187;SDS011;5650;52.700;7.306;2022-10-15T00:59:42;78.90;;;46.50;;
11187;SDS011;5650;52.700;7.306;2022-10-15T01:02:19;85.32;;;47.42;;
11187;SDS011;5650;52.700;7.306;2022-10-15T01:04:46;79.07;;;47.80;;
11187;SDS011;5650;52.700;7.306;2022-10-15T01:07:14;85.25;;;47.38;;
11187;SDS011;5650;52.700;7.306;2022-10-15T01:09:44;85.40;;;49.17;;
11187;SDS011;5650;52.700;7.306;2022-10-15T01:12:19;77.00;;;47.30;;
11187;SDS011;5650;52.700;7.306;2022-10-15T01:17:53;80.65;;;46.85;;
11187;SDS011;5650;52.700;7.306;2022-10-15T01:20:40;77.35;;;47.47;;
11187;SDS011;5650;52.700;7.306;2022-10-15T01:26:41;82.38;;;46.47;;
11187;SDS011;5650;52.700;7.306;2022-10-15T01:32:24;82.85;;;47.08;;
11187;SDS011;5650;52.700;7.306;2022-10-15T01:34:54;77.00;;;45.97;;
11187;SDS011;5650;52.700;7.306;2022-10-15T01:37:37;77.30;;;47.63;;
11187;SDS011;5650;52.700;7.306;2022-10-15T01:40:12;85.70;;;47.80;;
11187;SDS011;5650;52.700;7.306;2022-10-15T01:42:45;74.30;;;46.00;;
11187;SDS011;5650;52.700;7.306;2022-10-15T01:45:44;75.22;;;46.33;;
11187;SDS011;5650;52.700;7.306;2022-10-15T01:48:15;76.50;;;45.78;;
11187;SDS011;5650;52.700;7.306;2022-10-15T01:50:45;72.07;;;45.60;;
11187;SDS011;5650;52.700;7.306;2022-10-15T01:53:14;73.95;;;45.25;;
11187;SDS011;5650;52.700;7.306;2022-10-15T01:55:53;80.28;;;48.78;;
11187;SDS011;5650;52.700;7.306;2022-10-15T01:58:24;75.13;;;45.95;;
11187;SDS011;5650;52.700;7.306;2022-10-15T02:00:53;73.32;;;46.55;;
11187;SDS011;5650;52.700;7.306;2022-10-15T02:03:24;71.25;;;44.65;;
11187;SDS011;5650;52.700;7.306;2022-10-15T02:05:55;69.32;;;46.15;;
11187;SDS011;5650;52.700;7.306;2022-10-15T02:08:30;74.15;;;44.13;;
11187;SDS011;5650;52.700;7.306;2022-10-15T02:11:08;67.57;;;44.10;;
11187;SDS011;5650;52.700;7.306;2022-10-15T02:13:41;66.80;;;42.45;;
11187;SDS011;5650;52.700;7.306;2022-10-15T02:16:20;73.35;;;45.90;;
11187;SDS011;5650;52.700;7.306;2022-10-15T02:18:54;75.13;;;46.45;;
11187;SDS011;5650;52.700;7.306;2022-10-15T02:21:34;80.70;;;45.67;;
11187;SDS011;5650;52.700;7.306;2022-10-15T02:24:08;71.03;;;44.15;;
11187;SDS011;5650;52.700;7.306;2022-10-15T02:26:37;67.65;;;40.75;;
11187;SDS011;5650;52.700;7.306;2022-10-15T02:29:07;69.10;;;44.08;;
11187;SDS011;5650;52.700;7.306;2022-10-15T02:31:37;71.57;;;45.00;;
11187;SDS011;5650;52.700;7.306;2022-10-15T02:34:09;72.50;;;44.22;;
11187;SDS011;5650;52.700;7.306;2022-10-15T02:36:44;71.45;;;45.10;;
11187;SDS011;5650;52.700;7.306;2022-10-15T02:39:13;75.10;;;45.15;;
11187;SDS011;5650;52.700;7.306;2022-10-15T02:41:47;75.85;;;44.30;;
11187;SDS011;5650;52.700;7.306;2022-10-15T02:44:14;70.13;;;45.17;;
11187;SDS011;5650;52.700;7.306;2022-10-15T02:46:42;78.30;;;46.35;;
11187;SDS011;5650;52.700;7.306;2022-10-15T02:49:10;74.60;;;46.78;;
11187;SDS011;5650;52.700;7.306;2022-10-15T02:51:37;70.60;;;45.88;;
11187;SDS011;5650;52.700;7.306;2022-10-15T02:54:10;74.90;;;44.38;;
11187;SDS011;5650;52.700;7.306;2022-10-15T02:56:37;80.68;;;47.13;;
11187;SDS011;5650;52.700;7.306;2022-10-15T02:59:08;74.55;;;46.17;;
11187;SDS011;5650;52.700;7.306;2022-10-15T03:01:35;83.07;;;47.90;;
11187;SDS011;5650;52.700;7.306;2022-10-15T03:04:06;73.85;;;44.10;;
11187;SDS011;5650;52.700;7.306;2022-10-15T03:06:38;76.05;;;44.88;;
11187;SDS011;5650;52.700;7.306;2022-10-15T03:09:08;74.55;;;46.15;;
11187;SDS011;5650;52.700;7.306;2022-10-15T03:11:36;72.82;;;45.55;;
11187;SDS011;5650;52.700;7.306;2022-10-15T03:14:06;71.40;;;43.72;;
11187;SDS011;5650;52.700;7.306;2022-10-15T03:16:33;70.95;;;42.78;;
11187;SDS011;5650;52.700;7.306;2022-10-15T03:19:00;72.63;;;42.75;;
11187;SDS011;5650;52.700;7.306;2022-10-15T03:21:28;76.70;;;44.95;;
11187;SDS011;5650;52.700;7.306;2022-10-15T03:23:57;71.63;;;43.67;;
11187;SDS011;5650;52.700;7.306;2022-10-15T03:26:24;73.93;;;44.30;;
11187;SDS011;5650;52.700;7.306;2022-10-15T03:28:51;72.90;;;43.65;;
11187;SDS011;5650;52.700;7.306;2022-10-15T03:31:25;74.53;;;42.80;;
11187;SDS011;5650;52.700;7.306;2022-10-15T03:33:55;71.75;;;44.65;;
11187;SDS011;5650;52.700;7.306;2022-10-15T03:36:23;70.30;;;41.65;;
11187;SDS011;5650;52.700;7.306;2022-10-15T03:38:50;72.85;;;41.88;;
11187;SDS011;5650;52.700;7.306;2022-10-15T03:41:18;78.28;;;43.90;;
11187;SDS011;5650;52.700;7.306;2022-10-15T03:43:45;69.57;;;41.63;;
11187;SDS011;5650;52.700;7.306;2022-10-15T03:46:15;74.13;;;42.80;;
11187;SDS011;5650;52.700;7.306;2022-10-15T03:48:42;73.13;;;42.80;;
11187;SDS011;5650;52.700;7.306;2022-10-15T03:51:22;75.25;;;43.70;;
11187;SDS011;5650;52.700;7.306;2022-10-15T03:53:49;76.07;;;44.38;;
11187;SDS011;5650;52.700;7.306;2022-10-15T03:56:18;80.45;;;45.15;;
11187;SDS011;5650;52.700;7.306;2022-10-15T03:58:45;76.28;;;43.65;;
11187;SDS011;5650;52.700;7.306;2022-10-15T04:01:14;75.10;;;42.63;;
11187;SDS011;5650;52.700;7.306;2022-10-15T04:03:42;78.30;;;46.05;;
11187;SDS011;5650;52.700;7.306;2022-10-15T04:06:09;79.43;;;44.78;;
11187;SDS011;5650;52.700;7.306;2022-10-15T04:08:36;76.38;;;43.53;;
11187;SDS011;5650;52.700;7.306;2022-10-15T04:11:03;79.15;;;44.45;;
11187;SDS011;5650;52.700;7.306;2022-10-15T04:13:32;80.82;;;44.80;;
11187;SDS011;5650;52.700;7.306;2022-10-15T04:16:02;84.90;;;45.60;;
11187;SDS011;5650;52.700;7.306;2022-10-15T04:18:30;78.70;;;44.92;;
11187;SDS011;5650;52.700;7.306;2022-10-15T04:21:03;79.55;;;42.92;;
11187;SDS011;5650;52.700;7.306;2022-10-15T04:23:30;71.07;;;41.92;;
11187;SDS011;5650;52.700;7.306;2022-10-15T04:26:00;77.93;;;43.47;;
11187;SDS011;5650;52.700;7.306;2022-10-15T04:28:34;76.15;;;42.45;;
11187;SDS011;5650;52.700;7.306;2022-10-15T04:31:04;73.95;;;41.58;;
11187;SDS011;5650;52.700;7.306;2022-10-15T04:33:31;72.03;;;40.95;;
11187;SDS011;5650;52.700;7.306;2022-10-15T04:35:59;72.85;;;41.60;;
11187;SDS011;5650;52.700;7.306;2022-10-15T04:38:29;69.38;;;39.88;;
11187;SDS011;5650;52.700;7.306;2022-10-15T04:41:00;69.50;;;39.10;;
11187;SDS011;5650;52.700;7.306;2022-10-15T04:43:33;63.38;;;37.67;;
11187;SDS011;5650;52.700;7.306;2022-10-15T04:46:01;72.03;;;40.97;;
11187;SDS011;5650;52.700;7.306;2022-10-15T04:48:30;70.57;;;40.15;;
11187;SDS011;5650;52.700;7.306;2022-10-15T04:51:03;69.15;;;39.17;;
11187;SDS011;5650;52.700;7.306;2022-10-15T04:53:31;68.38;;;39.35;;
11187;SDS011;5650;52.700;7.306;2022-10-15T04:56:02;63.35;;;37.05;;
11187;SDS011;5650;52.700;7.306;2022-10-15T04:58:44;65.03;;;36.83;;
11187;SDS011;5650;52.700;7.306;2022-10-15T05:01:13;68.63;;;39.15;;
11187;SDS011;5650;52.700;7.306;2022-10-15T05:03:50;64.00;;;39.30;;
11187;SDS011;5650;52.700;7.306;2022-10-15T05:06:18;65.28;;;38.20;;
11187;SDS011;5650;52.700;7.306;2022-10-15T05:08:46;67.55;;;38.08;;
11187;SDS011;5650;52.700;7.306;2022-10-15T05:11:18;64.25;;;37.75;;
11187;SDS011;5650;52.700;7.306;2022-10-15T05:13:48;67.65;;;38.92;;
11187;SDS011;5650;52.700;7.306;2022-10-15T05:16:15;64.88;;;37.28;;
11187;SDS011;5650;52.700;7.306;2022-10-15T05:18:50;65.78;;;37.42;;
11187;SDS011;5650;52.700;7.306;2022-10-15T05:21:23;63.83;;;37.50;;
11187;SDS011;5650;52.700;7.306;2022-10-15T05:23:51;68.43;;;39.00;;
11187;SDS011;5650;52.700;7.306;2022-10-15T05:26:24;68.25;;;37.58;;
11187;SDS011;5650;52.700;7.306;2022-10-15T05:29:02;74.20;;;38.70;;
11187;SDS011;5650;52.700;7.306;2022-10-15T05:31:35;68.22;;;39.30;;
11187;SDS011;5650;52.700;7.306;2022-10-15T05:34:05;75.13;;;40.70;;
11187;SDS011;5650;52.700;7.306;2022-10-15T05:36:33;72.15;;;40.15;;
11187;SDS011;5650;52.700;7.306;2022-10-15T05:39:04;79.40;;;42.55;;
11187;SDS011;5650;52.700;7.306;2022-10-15T05:41:34;73.05;;;41.20;;
11187;SDS011;5650;52.700;7.306;2022-10-15T05:44:05;74.35;;;41.08;;
11187;SDS011;5650;52.700;7.306;2022-10-15T05:46:32;71.13;;;40.38;;
11187;SDS011;5650;52.700;7.306;2022-10-15T05:48:59;75.53;;;42.50;;
11187;SDS011;5650;52.700;7.306;2022-10-15T05:51:36;75.93;;;42.50;;
11187;SDS011;5650;52.700;7.306;2022-10-15T05:54:03;72.38;;;41.42;;
11187;SDS011;5650;52.700;7.306;2022-10-15T05:56:32;73.47;;;42.45;;
11187;SDS011;5650;52.700;7.306;2022-10-15T05:58:59;72.90;;;42.53;;
11187;SDS011;5650;52.700;7.306;2022-10-15T06:01:28;64.35;;;39.92;;
11187;SDS011;5650;52.700;7.306;2022-10-15T06:03:56;70.78;;;40.10;;
11187;SDS011;5650;52.700;7.306;2022-10-15T06:06:23;71.30;;;39.83;;
11187;SDS011;5650;52.700;7.306;2022-10-15T06:08:51;68.35;;;40.08;;
11187;SDS011;5650;52.700;7.306;2022-10-15T06:11:38;68.75;;;40.47;;
11187;SDS011;5650;52.700;7.306;2022-10-15T06:14:08;66.60;;;39.55;;
11187;SDS011;5650;52.700;7.306;2022-10-15T06:16:42;70.40;;;42.13;;
11187;SDS011;5650;52.700;7.306;2022-10-15T06:19:10;72.32;;;42.83;;
11187;SDS011;5650;52.700;7.306;2022-10-15T06:21:40;66.57;;;39.63;;
11187;SDS011;5650;52.700;7.306;2022-10-15T06:24:06;62.70;;;38.35;;
11187;SDS011;5650;52.700;7.306;2022-10-15T06:26:33;63.63;;;39.58;;
11187;SDS011;5650;52.700;7.306;2022-10-15T06:29:00;61.47;;;38.85;;
11187;SDS011;5650;52.700;7.306;2022-10-15T06:31:27;55.53;;;36.83;;
11187;SDS011;5650;52.700;7.306;2022-10-15T06:33:59;61.30;;;38.53;;
11187;SDS011;5650;52.700;7.306;2022-10-15T06:36:25;56.40;;;37.15;;
11187;SDS011;5650;52.700;7.306;2022-10-15T06:38:56;56.30;;;37.33;;
11187;SDS011;5650;52.700;7.306;2022-10-15T06:41:23;61.05;;;38.42;;
11187;SDS011;5650;52.700;7.306;2022-10-15T06:43:50;55.65;;;34.70;;
11187;SDS011;5650;52.700;7.306;2022-10-15T06:46:23;59.10;;;37.25;;
11187;SDS011;5650;52.700;7.306;2022-10-15T06:49:06;51.20;;;34.95;;
11187;SDS011;5650;52.700;7.306;2022-10-15T06:51:36;53.72;;;35.15;;
11187;SDS011;5650;52.700;7.306;2022-10-15T06:54:13;53.30;;;35.42;;
11187;SDS011;5650;52.700;7.306;2022-10-15T06:56:41;55.08;;;35.42;;
11187;SDS011;5650;52.700;7.306;2022-10-15T07:01:53;56.38;;;37.08;;
11187;SDS011;5650;52.700;7.306;2022-10-15T07:04:22;52.50;;;35.97;;
11187;SDS011;5650;52.700;7.306;2022-10-15T07:06:59;48.50;;;34.47;;
11187;SDS011;5650;52.700;7.306;2022-10-15T07:09:28;53.22;;;35.38;;
11187;SDS011;5650;52.700;7.306;2022-10-15T07:11:55;51.40;;;34.85;;
11187;SDS011;5650;52.700;7.306;2022-10-15T07:14:25;58.70;;;32.75;;
11187;SDS011;5650;52.700;7.306;2022-10-15T07:16:52;50.80;;;34.70;;
11187;SDS011;5650;52.700;7.306;2022-10-15T07:19:37;51.17;;;34.28;;
11187;SDS011;5650;52.700;7.306;2022-10-15T07:22:10;49.45;;;34.50;;
11187;SDS011;5650;52.700;7.306;2022-10-15T07:24:41;49.30;;;33.03;;
11187;SDS011;5650;52.700;7.306;2022-10-15T07:27:14;50.00;;;33.53;;
11187;SDS011;5650;52.700;7.306;2022-10-15T07:29:41;48.30;;;33.90;;
11187;SDS011;5650;52.700;7.306;2022-10-15T07:32:11;47.65;;;32.90;;
11187;SDS011;5650;52.700;7.306;2022-10-15T07:34:40;42.00;;;32.50;;
11187;SDS011;5650;52.700;7.306;2022-10-15T07:37:07;47.25;;;33.67;;
11187;SDS011;5650;52.700;7.306;2022-10-15T07:39:37;45.80;;;33.03;;
11187;SDS011;5650;52.700;7.306;2022-10-15T07:42:07;46.90;;;33.42;;
11187;SDS011;5650;52.700;7.306;2022-10-15T07:44:34;42.80;;;31.92;;
11187;SDS011;5650;52.700;7.306;2022-10-15T07:47:01;40.42;;;31.55;;
11187;SDS011;5650;52.700;7.306;2022-10-15T07:49:37;43.58;;;31.38;;
11187;SDS011;5650;52.700;7.306;2022-10-15T07:52:12;48.70;;;32.45;;
11187;SDS011;5650;52.700;7.306;2022-10-15T07:54:39;40.72;;;31.92;;
11187;SDS011;5650;52.700;7.306;2022-10-15T07:57:12;43.33;;;30.80;;
11187;SDS011;5650;52.700;7.306;2022-10-15T07:59:42;41.85;;;31.92;;
11187;SDS011;5650;52.700;7.306;2022-10-15T08:02:13;46.55;;;31.45;;
11187;SDS011;5650;52.700;7.306;2022-10-15T08:04:51;45.20;;;32.25;;
11187;SDS011;5650;52.700;7.306;2022-10-15T08:07:22;42.58;;;30.35;;
11187;SDS011;5650;52.700;7.306;2022-10-15T08:09:54;44.22;;;31.00;;
11187;SDS011;5650;52.700;7.306;2022-10-15T08:12:26;41.42;;;30.20;;
11187;SDS011;5650;52.700;7.306;2022-10-15T08:14:59;43.08;;;29.90;;
11187;SDS011;5650;52.700;7.306;2022-10-15T08:17:40;44.35;;;31.92;;
11187;SDS011;5650;52.700;7.306;2022-10-15T08:20:14;41.88;;;30.00;;
11187;SDS011;5650;52.700;7.306;2022-10-15T08:22:44;42.40;;;31.65;;
11187;SDS011;5650;52.700;7.306;2022-10-15T08:25:14;40.78;;;29.42;;
11187;SDS011;5650;52.700;7.306;2022-10-15T08:27:44;39.65;;;28.90;;
11187;SDS011;5650;52.700;7.306;2022-10-15T08:30:11;36.53;;;27.77;;
11187;SDS011;5650;52.700;7.306;2022-10-15T08:32:38;36.50;;;28.38;;
11187;SDS011;5650;52.700;7.306;2022-10-15T08:35:16;36.22;;;28.20;;
11187;SDS011;5650;52.700;7.306;2022-10-15T08:37:43;32.55;;;26.65;;
11187;SDS011;5650;52.700;7.306;2022-10-15T08:40:13;34.67;;;26.08;;
11187;SDS011;5650;52.700;7.306;2022-10-15T08:42:47;34.00;;;26.70;;
11187;SDS011;5650;52.700;7.306;2022-10-15T08:45:27;37.08;;;27.35;;
11187;SDS011;5650;52.700;7.306;2022-10-15T08:47:57;31.70;;;26.05;;
11187;SDS011;5650;52.700;7.306;2022-10-15T08:50:33;33.95;;;26.98;;
11187;SDS011;5650;52.700;7.306;2022-10-15T08:53:08;35.30;;;28.05;;
11187;SDS011;5650;52.700;7.306;2022-10-15T08:55:38;35.28;;;27.45;;
11187;SDS011;5650;52.700;7.306;2022-10-15T08:58:13;32.78;;;26.90;;
11187;SDS011;5650;52.700;7.306;2022-10-15T09:01:11;46.35;;;26.73;;
11187;SDS011;5650;52.700;7.306;2022-10-15T09:03:50;33.42;;;27.25;;
11187;SDS011;5650;52.700;7.306;2022-10-15T09:06:29;33.50;;;27.23;;
11187;SDS011;5650;52.700;7.306;2022-10-15T09:09:02;35.63;;;28.67;;
11187;SDS011;5650;52.700;7.306;2022-10-15T09:11:45;38.65;;;28.45;;
11187;SDS011;5650;52.700;7.306;2022-10-15T09:14:20;39.67;;;28.30;;
11187;SDS011;5650;52.700;7.306;2022-10-15T09:16:58;37.63;;;28.38;;
11187;SDS011;5650;52.700;7.306;2022-10-15T09:19:36;36.42;;;28.75;;
11187;SDS011;5650;52.700;7.306;2022-10-15T09:22:09;37.55;;;29.48;;
11187;SDS011;5650;52.700;7.306;2022-10-15T09:24:42;70.30;;;30.80;;
11187;SDS011;5650;52.700;7.306;2022-10-15T09:27:16;36.92;;;28.17;;
11187;SDS011;5650;52.700;7.306;2022-10-15T09:29:56;31.98;;;28.25;;
11187;SDS011;5650;52.700;7.306;2022-10-15T09:32:33;34.22;;;28.38;;
11187;SDS011;5650;52.700;7.306;2022-10-15T09:35:09;34.15;;;27.48;;
11187;SDS011;5650;52.700;7.306;2022-10-15T09:37:45;32.50;;;27.65;;
11187;SDS011;5650;52.700;7.306;2022-10-15T09:40:32;34.25;;;27.20;;
11187;SDS011;5650;52.700;7.306;2022-10-15T09:43:05;32.38;;;26.55;;
11187;SDS011;5650;52.700;7.306;2022-10-15T09:45:35;38.40;;;26.80;;
11187;SDS011;5650;52.700;7.306;2022-10-15T09:48:12;34.95;;;27.15;;
11187;SDS011;5650;52.700;7.306;2022-10-15T09:50:47;31.38;;;26.08;;
11187;SDS011;5650;52.700;7.306;2022-10-15T09:53:23;31.92;;;26.10;;
11187;SDS011;5650;52.700;7.306;2022-10-15T09:56:08;31.90;;;26.00;;
11187;SDS011;5650;52.700;7.306;2022-10-15T09:58:44;34.17;;;26.80;;
11187;SDS011;5650;52.700;7.306;2022-10-15T10:01:20;29.17;;;26.08;;
11187;SDS011;5650;52.700;7.306;2022-10-15T10:04:02;27.23;;;23.75;;
11187;SDS011;5650;52.700;7.306;2022-10-15T10:06:44;27.45;;;23.38;;
11187;SDS011;5650;52.700;7.306;2022-10-15T10:09:16;27.88;;;22.17;;
11187;SDS011;5650;52.700;7.306;2022-10-15T10:11:49;24.45;;;21.88;;
11187;SDS011;5650;52.700;7.306;2022-10-15T10:14:22;25.33;;;21.10;;
11187;SDS011;5650;52.700;7.306;2022-10-15T10:17:13;23.70;;;20.90;;
11187;SDS011;5650;52.700;7.306;2022-10-15T10:19:45;23.33;;;20.92;;
11187;SDS011;5650;52.700;7.306;2022-10-15T10:22:31;24.38;;;19.95;;
11187;SDS011;5650;52.700;7.306;2022-10-15T10:25:21;22.88;;;19.48;;
11187;SDS011;5650;52.700;7.306;2022-10-15T10:28:14;22.73;;;20.35;;
11187;SDS011;5650;52.700;7.306;2022-10-15T10:30:59;22.65;;;19.35;;
11187;SDS011;5650;52.700;7.306;2022-10-15T10:33:29;23.02;;;19.98;;
11187;SDS011;5650;52.700;7.306;2022-10-15T10:36:00;21.55;;;19.25;;
11187;SDS011;5650;52.700;7.306;2022-10-15T10:38:38;22.92;;;19.40;;
11187;SDS011;5650;52.700;7.306;2022-10-15T10:41:13;19.60;;;17.52;;
11187;SDS011;5650;52.700;7.306;2022-10-15T10:43:51;19.58;;;17.60;;
11187;SDS011;5650;52.700;7.306;2022-10-15T10:46:20;20.98;;;17.05;;
11187;SDS011;5650;52.700;7.306;2022-10-15T10:48:54;17.95;;;16.05;;
11187;SDS011;5650;52.700;7.306;2022-10-15T10:51:26;18.42;;;15.55;;
11187;SDS011;5650;52.700;7.306;2022-10-15T10:53:58;16.52;;;14.93;;
11187;SDS011;5650;52.700;7.306;2022-10-15T10:56:29;16.48;;;14.82;;
11187;SDS011;5650;52.700;7.306;2022-10-15T10:59:09;15.82;;;14.23;;
11187;SDS011;5650;52.700;7.306;2022-10-15T11:01:46;17.10;;;15.27;;
11187;SDS011;5650;52.700;7.306;2022-10-15T11:04:16;15.90;;;14.30;;
11187;SDS011;5650;52.700;7.306;2022-10-15T11:06:49;16.25;;;14.70;;
11187;SDS011;5650;52.700;7.306;2022-10-15T11:09:45;16.05;;;13.25;;
11187;SDS011;5650;52.700;7.306;2022-10-15T11:15:32;14.90;;;12.38;;
11187;SDS011;5650;52.700;7.306;2022-10-15T11:18:15;14.38;;;11.75;;
11187;SDS011;5650;52.700;7.306;2022-10-15T11:21:05;13.93;;;12.43;;
11187;SDS011;5650;52.700;7.306;2022-10-15T11:23:46;16.98;;;13.32;;
11187;SDS011;5650;52.700;7.306;2022-10-15T11:26:34;13.15;;;11.95;;
11187;SDS011;5650;52.700;7.306;2022-10-15T11:29:14;13.57;;;11.80;;
11187;SDS011;5650;52.700;7.306;2022-10-15T11:32:01;13.15;;;11.23;;
11187;SDS011;5650;52.700;7.306;2022-10-15T11:34:42;13.57;;;12.18;;
11187;SDS011;5650;52.700;7.306;2022-10-15T11:37:44;15.10;;;12.18;;
11187;SDS011;5650;52.700;7.306;2022-10-15T11:40:31;12.55;;;11.35;;
11187;SDS011;5650;52.700;7.306;2022-10-15T11:43:10;12.50;;;11.25;;
11187;SDS011;5650;52.700;7.306;2022-10-15T11:45:53;11.48;;;10.27;;
11187;SDS011;5650;52.700;7.306;2022-10-15T11:48:30;12.43;;;10.45;;
11187;SDS011;5650;52.700;7.306;2022-10-15T11:51:19;11.50;;;10.40;;
11187;SDS011;5650;52.700;7.306;2022-10-15T11:54:01;13.52;;;11.00;;
11187;SDS011;5650;52.700;7.306;2022-10-15T11:56:38;13.13;;;11.18;;
11187;SDS011;5650;52.700;7.306;2022-10-15T11:59:14;11.02;;;9.98;;
11187;SDS011;5650;52.700;7.306;2022-10-15T12:02:08;12.13;;;10.45;;
11187;SDS011;5650;52.700;7.306;2022-10-15T12:04:42;11.75;;;10.60;;
11187;SDS011;5650;52.700;7.306;2022-10-15T12:07:15;13.27;;;10.57;;
11187;SDS011;5650;52.700;7.306;2022-10-15T12:09:47;13.88;;;11.57;;
11187;SDS011;5650;52.700;7.306;2022-10-15T12:12:20;12.85;;;11.52;;
11187;SDS011;5650;52.700;7.306;2022-10-15T12:14:57;13.85;;;11.85;;
11187;SDS011;5650;52.700;7.306;2022-10-15T12:17:45;14.25;;;12.85;;
11187;SDS011;5650;52.700;7.306;2022-10-15T12:20:16;16.08;;;13.57;;
11187;SDS011;5650;52.700;7.306;2022-10-15T12:22:56;15.82;;;14.27;;
11187;SDS011;5650;52.700;7.306;2022-10-15T12:25:43;16.73;;;14.35;;
11187;SDS011;5650;52.700;7.306;2022-10-15T12:28:15;17.58;;;15.68;;
11187;SDS011;5650;52.700;7.306;2022-10-15T12:30:54;17.10;;;15.55;;
11187;SDS011;5650;52.700;7.306;2022-10-15T12:33:38;18.33;;;16.52;;
11187;SDS011;5650;52.700;7.306;2022-10-15T12:36:20;18.35;;;16.63;;
11187;SDS011;5650;52.700;7.306;2022-10-15T12:38:54;18.23;;;16.52;;
11187;SDS011;5650;52.700;7.306;2022-10-15T12:41:33;19.98;;;18.08;;
11187;SDS011;5650;52.700;7.306;2022-10-15T12:44:04;19.85;;;17.75;;
11187;SDS011;5650;52.700;7.306;2022-10-15T12:46:34;20.58;;;18.25;;
11187;SDS011;5650;52.700;7.306;2022-10-15T12:49:14;20.60;;;18.60;;
11187;SDS011;5650;52.700;7.306;2022-10-15T12:55:28;26.75;;;24.10;;
11187;SDS011;5650;52.700;7.306;2022-10-15T12:57:59;21.80;;;19.70;;
11187;SDS011;5650;52.700;7.306;2022-10-15T13:06:23;21.05;;;19.05;;
11187;SDS011;5650;52.700;7.306;2022-10-15T13:08:59;21.05;;;19.00;;
11187;SDS011;5650;52.700;7.306;2022-10-15T13:11:39;19.95;;;17.95;;
11187;SDS011;5650;52.700;7.306;2022-10-15T13:14:14;20.85;;;18.70;;
11187;SDS011;5650;52.700;7.306;2022-10-15T13:16:47;21.45;;;19.23;;
11187;SDS011;5650;52.700;7.306;2022-10-15T13:19:18;23.63;;;21.23;;
11187;SDS011;5650;52.700;7.306;2022-10-15T13:21:49;23.27;;;21.17;;
11187;SDS011;5650;52.700;7.306;2022-10-15T13:24:21;22.15;;;19.75;;
11187;SDS011;5650;52.700;7.306;2022-10-15T13:26:49;20.60;;;18.60;;
11187;SDS011;5650;52.700;7.306;2022-10-15T13:29:26;19.23;;;17.33;;
11187;SDS011;5650;52.700;7.306;2022-10-15T13:31:54;22.23;;;19.35;;
11187;SDS011;5650;52.700;7.306;2022-10-15T13:34:29;20.10;;;17.83;;
11187;SDS011;5650;52.700;7.306;2022-10-15T13:37:04;20.25;;;18.35;;
11187;SDS011;5650;52.700;7.306;2022-10-15T13:39:34;19.92;;;17.38;;
11187;SDS011;5650;52.700;7.306;2022-10-15T13:42:08;18.75;;;17.05;;
11187;SDS011;5650;52.700;7.306;2022-10-15T13:44:57;19.20;;;17.33;;
11187;SDS011;5650;52.700;7.306;2022-10-15T13:47:34;17.40;;;15.48;;
11187;SDS011;5650;52.700;7.306;2022-10-15T13:52:56;15.57;;;13.88;;
11187;SDS011;5650;52.700;7.306;2022-10-15T13:55:34;13.93;;;12.60;;
11187;SDS011;5650;52.700;7.306;2022-10-15T13:58:13;12.40;;;11.20;;
11187;SDS011;5650;52.700;7.306;2022-10-15T14:00:47;11.88;;;9.18;;
11187;SDS011;5650;52.700;7.306;2022-10-15T14:03:16;10.00;;;9.00;;
11187;SDS011;5650;52.700;7.306;2022-10-15T14:05:46;9.52;;;8.00;;
11187;SDS011;5650;52.700;7.306;2022-10-15T14:08:25;7.45;;;6.75;;
11187;SDS011;5650;52.700;7.306;2022-10-15T14:10:56;8.55;;;6.95;;
11187;SDS011;5650;52.700;7.306;2022-10-15T14:13:24;8.52;;;7.53;;
11187;SDS011;5650;52.700;7.306;2022-10-15T14:15:59;7.32;;;6.50;;
11187;SDS011;5650;52.700;7.306;2022-10-15T14:18:36;7.70;;;6.78;;
11187;SDS011;5650;52.700;7.306;2022-10-15T14:21:18;7.30;;;6.60;;
11187;SDS011;5650;52.700;7.306;2022-10-15T14:24:00;7.28;;;6.13;;
11187;SDS011;5650;52.700;7.306;2022-10-15T14:26:29;8.27;;;7.25;;
11187;SDS011;5650;52.700;7.306;2022-10-15T14:28:58;7.18;;;6.55;;
11187;SDS011;5650;52.700;7.306;2022-10-15T14:31:28;6.28;;;5.68;;
11187;SDS011;5650;52.700;7.306;2022-10-15T14:33:57;6.65;;;5.72;;
11187;SDS011;5650;52.700;7.306;2022-10-15T14:36:44;6.53;;;5.72;;
11187;SDS011;5650;52.700;7.306;2022-10-15T14:39:29;5.82;;;5.32;;
11187;SDS011;5650;52.700;7.306;2022-10-15T14:42:02;6.60;;;6.05;;
11187;SDS011;5650;52.700;7.306;2022-10-15T14:44:46;6.78;;;6.18;;
11187;SDS011;5650;52.700;7.306;2022-10-15T14:47:17;7.07;;;5.95;;
11187;SDS011;5650;52.700;7.306;2022-10-15T14:49:46;6.15;;;5.65;;
11187;SDS011;5650;52.700;7.306;2022-10-15T14:52:15;7.10;;;6.50;;
11187;SDS011;5650;52.700;7.306;2022-10-15T14:54:48;7.32;;;6.63;;
11187;SDS011;5650;52.700;7.306;2022-10-15T14:57:35;6.90;;;6.30;;
11187;SDS011;5650;52.700;7.306;2022-10-15T15:00:05;7.57;;;6.53;;
11187;SDS011;5650;52.700;7.306;2022-10-15T15:02:45;7.55;;;6.75;;
11187;SDS011;5650;52.700;7.306;2022-10-15T15:05:20;6.40;;;5.80;;
11187;SDS011;5650;52.700;7.306;2022-10-15T15:07:54;7.60;;;6.90;;
11187;SDS011;5650;52.700;7.306;2022-10-15T15:10:26;9.00;;;8.10;;
11187;SDS011;5650;52.700;7.306;2022-10-15T15:12:54;7.97;;;6.50;;
11187;SDS011;5650;52.700;7.306;2022-10-15T15:15:28;6.55;;;6.05;;
11187;SDS011;5650;52.700;7.306;2022-10-15T15:17:55;6.70;;;6.20;;
11187;SDS011;5650;52.700;7.306;2022-10-15T15:20:22;6.90;;;6.22;;
11187;SDS011;5650;52.700;7.306;2022-10-15T15:22:55;7.20;;;6.40;;
11187;SDS011;5650;52.700;7.306;2022-10-15T15:25:33;5.90;;;5.40;;
11187;SDS011;5650;52.700;7.306;2022-10-15T15:28:05;9.45;;;6.00;;
11187;SDS011;5650;52.700;7.306;2022-10-15T15:30:40;5.78;;;5.20;;
11187;SDS011;5650;52.700;7.306;2022-10-15T15:33:09;5.88;;;5.32;;
11187;SDS011;5650;52.700;7.306;2022-10-15T15:35:40;8.43;;;5.25;;
11187;SDS011;5650;52.700;7.306;2022-10-15T15:38:14;5.38;;;4.88;;
11187;SDS011;5650;52.700;7.306;2022-10-15T15:40:43;6.75;;;5.05;;
11187;SDS011;5650;52.700;7.306;2022-10-15T15:43:10;7.15;;;4.85;;